createdAt,value
2018-03-24T00:00:09.759Z,15.73
2018-03-24T00:02:37.385Z,12.83
2018-03-24T00:05:05.017Z,11.77
2018-03-24T00:07:32.684Z,12.00
2018-03-24T00:10:00.336Z,13.97
2018-03-24T00:12:28.003Z,18.30
2018-03-24T00:14:55.604Z,18.27
2018-03-24T00:17:23.211Z,16.37
2018-03-24T00:19:50.811Z,16.00
2018-03-24T00:22:18.412Z,15.60
2018-03-24T00:24:46.075Z,17.90
2018-03-24T00:27:13.684Z,13.97
2018-03-24T00:29:41.284Z,19.03
2018-03-24T00:32:08.915Z,17.03
2018-03-24T00:34:36.523Z,15.53
2018-03-24T00:37:04.123Z,14.10
2018-03-24T00:39:31.736Z,18.87
2018-03-24T00:41:59.367Z,16.53
2018-03-24T00:44:26.999Z,16.63
2018-03-24T00:46:54.648Z,15.87
2018-03-24T00:49:22.245Z,17.27
2018-03-24T00:51:50.617Z,15.60
2018-03-24T00:54:18.259Z,13.73
2018-03-24T00:56:45.896Z,16.43
2018-03-24T00:59:13.516Z,17.10
2018-03-24T01:01:41.912Z,15.07
2018-03-24T01:04:09.536Z,21.00
2018-03-24T01:06:37.144Z,17.50
2018-03-24T01:09:04.796Z,18.60
2018-03-24T01:11:32.401Z,18.10
2018-03-24T01:14:00.008Z,18.77
2018-03-24T01:16:27.619Z,16.70
2018-03-24T01:18:55.223Z,18.73
2018-03-24T01:21:22.832Z,16.70
2018-03-24T01:23:50.451Z,19.43
2018-03-24T01:26:18.052Z,16.70
2018-03-24T01:28:45.672Z,18.40
2018-03-24T01:31:13.304Z,17.27
2018-03-24T01:33:41.704Z,20.90
2018-03-24T01:36:09.303Z,19.23
2018-03-24T01:38:36.916Z,20.97
2018-03-24T01:41:05.292Z,18.13
2018-03-24T01:43:33.669Z,20.17
2018-03-24T01:46:02.082Z,18.57
2018-03-24T01:48:29.780Z,21.23
2018-03-24T01:50:57.391Z,19.30
2018-03-24T01:56:24.375Z,19.10
2018-03-24T01:58:51.992Z,21.10
2018-03-24T02:04:22.747Z,18.33
2018-03-24T02:06:50.343Z,18.97
2018-03-24T02:09:17.944Z,17.80
2018-03-24T02:11:45.568Z,17.13
2018-03-24T02:14:13.189Z,18.07
2018-03-24T02:16:40.799Z,19.30
2018-03-24T02:19:08.470Z,21.23
2018-03-24T02:21:36.864Z,15.27
2018-03-24T02:24:04.475Z,19.47
2018-03-24T02:26:32.115Z,19.87
2018-03-24T02:28:59.732Z,19.03
2018-03-24T02:31:27.422Z,22.27
2018-03-24T02:33:55.810Z,22.27
2018-03-24T02:36:23.408Z,19.80
2018-03-24T02:38:51.060Z,22.17
2018-03-24T02:41:18.821Z,20.27
2018-03-24T02:43:46.472Z,19.03
2018-03-24T02:46:14.076Z,19.47
2018-03-24T02:48:42.505Z,22.77
2018-03-24T02:51:10.167Z,15.20
2018-03-24T02:53:37.804Z,18.53
2018-03-24T02:56:05.598Z,19.07
2018-03-24T02:58:33.364Z,18.03
2018-03-24T03:01:01.030Z,14.83
2018-03-24T03:03:28.739Z,20.67
2018-03-24T03:05:56.341Z,21.50
2018-03-24T03:08:24.041Z,19.87
2018-03-24T03:10:51.719Z,20.13
2018-03-24T03:13:20.152Z,23.30
2018-03-24T03:15:47.779Z,22.57
2018-03-24T03:18:15.471Z,19.27
2018-03-24T03:20:43.091Z,21.50
2018-03-24T03:23:11.548Z,20.07
2018-03-24T03:25:39.241Z,22.97
2018-03-24T03:28:07.600Z,23.67
2018-03-24T03:30:40.876Z,24.50
2018-03-24T03:33:09.309Z,28.73
2018-03-24T03:35:36.972Z,21.23
2018-03-24T03:38:04.663Z,25.10
2018-03-24T03:40:33.037Z,24.10
2018-03-24T03:43:00.648Z,25.97
2018-03-24T03:45:28.281Z,21.90
2018-03-24T03:47:56.692Z,23.27
2018-03-24T03:50:24.387Z,21.00
2018-03-24T03:52:52.034Z,25.67
2018-03-24T03:55:19.647Z,25.63
2018-03-24T03:57:47.267Z,25.87
2018-03-24T04:00:14.920Z,26.33
2018-03-24T04:02:42.601Z,22.77
2018-03-24T04:05:10.215Z,27.73
2018-03-24T04:07:37.838Z,25.93
2018-03-24T04:10:05.459Z,22.57
2018-03-24T04:12:33.073Z,25.23
2018-03-24T04:15:00.724Z,19.97
2018-03-24T04:17:28.393Z,21.60
2018-03-24T04:19:56.843Z,27.13
2018-03-24T04:22:24.472Z,25.90
2018-03-24T04:24:52.116Z,26.73
2018-03-24T04:27:19.729Z,27.10
2018-03-24T04:29:47.391Z,25.83
2018-03-24T04:32:15.019Z,25.17
2018-03-24T04:34:42.619Z,26.43
2018-03-24T04:37:10.281Z,27.13
2018-03-24T04:39:37.908Z,27.43
2018-03-24T04:42:05.512Z,21.07
2018-03-24T04:44:33.947Z,31.83
2018-03-24T04:47:01.635Z,26.30
2018-03-24T04:49:29.236Z,28.33
2018-03-24T04:51:56.876Z,26.97
2018-03-24T04:54:25.273Z,31.50
2018-03-24T04:56:53.643Z,30.63
2018-03-24T04:59:21.341Z,28.40
2018-03-24T05:01:48.948Z,24.23
2018-03-24T05:04:16.560Z,30.40
2018-03-24T05:06:44.185Z,23.10
2018-03-24T05:09:11.799Z,24.17
2018-03-24T05:11:39.428Z,25.20
2018-03-24T05:14:07.038Z,27.63
2018-03-24T05:16:34.656Z,29.03
2018-03-24T05:19:02.285Z,28.97
2018-03-24T05:21:30.097Z,28.10
2018-03-24T05:23:57.772Z,32.70
2018-03-24T05:26:25.382Z,28.00
2018-03-24T05:28:53.801Z,35.10
2018-03-24T05:31:21.427Z,31.90
2018-03-24T05:33:49.083Z,39.28
2018-03-24T05:36:16.727Z,35.80
2018-03-24T05:38:44.343Z,29.63
2018-03-24T05:41:11.992Z,25.40
2018-03-24T05:43:40.400Z,29.30
2018-03-24T05:46:08.016Z,28.53
2018-03-24T05:48:35.689Z,29.83
2018-03-24T05:51:04.086Z,33.37
2018-03-24T05:53:31.748Z,28.27
2018-03-24T05:55:59.361Z,30.03
2018-03-24T05:58:27.744Z,29.93
2018-03-24T06:00:55.352Z,29.33
2018-03-24T06:03:22.956Z,32.73
2018-03-24T06:05:50.588Z,31.10
2018-03-24T06:08:18.196Z,28.40
2018-03-24T06:10:45.843Z,34.83
2018-03-24T06:13:14.229Z,25.67
2018-03-24T06:15:41.849Z,30.33
2018-03-24T06:18:09.457Z,32.30
2018-03-24T06:20:37.845Z,28.90
2018-03-24T06:23:05.476Z,24.83
2018-03-24T06:28:03.947Z,31.93
2018-03-24T06:30:37.258Z,31.70
2018-03-24T06:33:05.677Z,35.00
2018-03-24T06:35:33.299Z,31.17
2018-03-24T06:38:01.745Z,33.67
2018-03-24T06:40:29.347Z,32.80
2018-03-24T06:42:57.719Z,30.33
2018-03-24T06:45:25.333Z,34.10
2018-03-24T06:47:52.956Z,29.63
2018-03-24T06:50:20.564Z,33.13
2018-03-24T06:52:48.180Z,29.97
2018-03-24T06:55:15.802Z,28.60
2018-03-24T06:57:43.407Z,27.77
2018-03-24T07:00:11.024Z,32.38
2018-03-24T07:02:39.292Z,29.53
2018-03-24T07:05:06.908Z,36.50
2018-03-24T07:07:34.520Z,31.83
2018-03-24T07:10:02.148Z,29.57
2018-03-24T07:12:29.772Z,31.17
2018-03-24T07:14:57.381Z,29.10
2018-03-24T07:17:25.018Z,27.90
2018-03-24T07:19:52.623Z,30.53
2018-03-24T07:22:20.229Z,31.40
2018-03-24T07:24:47.851Z,29.10
2018-03-24T07:27:15.461Z,30.87
2018-03-24T07:29:43.075Z,30.43
2018-03-24T07:32:10.708Z,34.10
2018-03-24T07:34:38.372Z,30.30
2018-03-24T07:37:05.980Z,30.43
2018-03-24T07:39:33.620Z,29.93
2018-03-24T07:42:01.235Z,32.77
2018-03-24T07:44:28.842Z,34.00
2018-03-24T07:46:56.484Z,31.03
2018-03-24T07:49:24.092Z,28.50
2018-03-24T07:51:51.705Z,34.27
2018-03-24T07:54:19.341Z,27.67
2018-03-24T07:56:46.946Z,30.00
2018-03-24T07:59:14.560Z,30.13
2018-03-24T08:01:42.201Z,30.60
2018-03-24T08:04:09.809Z,26.10
2018-03-24T08:06:37.543Z,30.90
2018-03-24T08:09:05.191Z,32.73
2018-03-24T08:11:32.841Z,30.50
2018-03-24T08:14:00.443Z,34.47
2018-03-24T08:16:28.081Z,31.77
2018-03-24T08:18:55.680Z,31.23
2018-03-24T08:21:23.292Z,35.67
2018-03-24T08:23:50.927Z,30.53
2018-03-24T08:26:19.296Z,34.33
2018-03-24T08:28:47.668Z,33.03
2018-03-24T08:31:16.051Z,35.50
2018-03-24T08:33:44.417Z,29.43
2018-03-24T08:36:12.032Z,28.70
2018-03-24T08:38:39.708Z,33.87
2018-03-24T08:41:07.310Z,32.93
2018-03-24T08:43:35.687Z,35.57
2018-03-24T08:46:03.331Z,33.40
2018-03-24T08:48:31.002Z,36.00
2018-03-24T08:50:58.604Z,28.60
2018-03-24T08:53:26.223Z,31.40
2018-03-24T08:55:53.824Z,30.53
2018-03-24T08:58:21.429Z,29.57
2018-03-24T09:00:49.215Z,30.93
2018-03-24T09:03:17.596Z,32.30
2018-03-24T09:05:45.979Z,32.60
2018-03-24T09:08:14.365Z,34.13
2018-03-24T09:10:42.732Z,32.40
2018-03-24T09:13:11.098Z,35.13
2018-03-24T09:15:38.714Z,28.83
2018-03-24T09:18:06.320Z,31.27
2018-03-24T09:20:33.928Z,34.07
2018-03-24T09:23:01.573Z,29.00
2018-03-24T09:25:29.181Z,34.83
2018-03-24T09:27:56.835Z,26.87
2018-03-24T09:30:24.428Z,29.53
2018-03-24T09:32:52.041Z,32.03
2018-03-24T09:35:19.654Z,30.70
2018-03-24T09:37:48.055Z,30.03
2018-03-24T09:40:15.655Z,34.87
2018-03-24T09:42:43.257Z,33.87
2018-03-24T09:45:11.632Z,29.53
2018-03-24T09:47:40.014Z,29.47
2018-03-24T09:50:07.623Z,31.93
2018-03-24T09:52:35.268Z,35.13
2018-03-24T09:55:02.872Z,32.03
2018-03-24T09:57:30.483Z,45.80
2018-03-24T09:59:58.102Z,39.07
2018-03-24T10:02:25.704Z,36.27
2018-03-24T10:04:54.076Z,34.23
2018-03-24T10:07:21.688Z,33.10
2018-03-24T10:09:49.291Z,31.80
2018-03-24T10:12:16.908Z,37.23
2018-03-24T10:14:44.519Z,34.43
2018-03-24T10:17:12.124Z,37.07
2018-03-24T10:19:39.727Z,37.63
2018-03-24T10:22:13.227Z,35.33
2018-03-24T10:24:40.824Z,34.10
2018-03-24T10:27:08.432Z,34.13
2018-03-24T10:29:36.048Z,28.10
2018-03-24T10:32:03.653Z,37.10
2018-03-24T10:34:31.252Z,36.70
2018-03-24T10:36:58.903Z,35.63
2018-03-24T10:39:26.513Z,38.83
2018-03-24T10:41:54.179Z,33.40
2018-03-24T10:44:21.800Z,35.37
2018-03-24T10:46:49.407Z,36.20
2018-03-24T10:49:17.012Z,34.33
2018-03-24T10:51:44.665Z,34.27
2018-03-24T10:54:12.280Z,37.63
2018-03-24T10:56:39.883Z,36.53
2018-03-24T11:01:42.236Z,33.20
2018-03-24T11:04:10.614Z,32.90
2018-03-24T11:06:38.988Z,28.57
2018-03-24T11:09:06.612Z,30.77
2018-03-24T11:11:34.213Z,36.93
2018-03-24T11:14:02.584Z,28.63
2018-03-24T11:16:30.196Z,37.83
2018-03-24T11:18:57.795Z,34.83
2018-03-24T11:21:25.391Z,29.93
2018-03-24T11:23:53.779Z,39.37
2018-03-24T11:26:21.397Z,34.43
2018-03-24T11:28:48.995Z,35.77
2018-03-24T11:31:16.608Z,37.43
2018-03-24T11:33:44.219Z,38.53
2018-03-24T11:36:11.811Z,31.80
2018-03-24T11:38:40.191Z,32.33
2018-03-24T11:41:07.796Z,33.10
2018-03-24T11:43:35.399Z,32.27
2018-03-24T11:46:03.016Z,38.97
2018-03-24T11:48:30.624Z,37.07
2018-03-24T11:50:58.252Z,35.83
2018-03-24T11:53:37.608Z,42.73
2018-03-24T11:56:05.216Z,36.70
2018-03-24T11:58:32.823Z,39.83
2018-03-24T12:01:00.467Z,38.73
2018-03-24T12:03:28.075Z,42.43
2018-03-24T12:05:55.687Z,36.43
2018-03-24T12:08:23.334Z,34.30
2018-03-24T12:10:50.964Z,37.13
2018-03-24T12:13:18.566Z,33.00
2018-03-24T12:15:46.944Z,34.63
2018-03-24T12:18:14.552Z,38.80
2018-03-24T12:20:42.155Z,30.90
2018-03-24T12:23:09.772Z,38.83
2018-03-24T12:25:37.379Z,31.87
2018-03-24T12:28:05.745Z,38.57
2018-03-24T12:30:33.391Z,32.87
2018-03-24T12:33:00.995Z,35.53
2018-03-24T12:35:28.628Z,41.60
2018-03-24T12:37:57.007Z,33.30
2018-03-24T12:40:25.381Z,29.47
2018-03-24T12:42:53.758Z,31.80
2018-03-24T12:45:21.396Z,39.87
2018-03-24T12:47:49.011Z,39.07
2018-03-24T12:50:16.615Z,36.80
2018-03-24T12:52:44.265Z,35.03
2018-03-24T12:55:11.884Z,33.30
2018-03-24T12:57:40.248Z,33.23
2018-03-24T13:00:08.620Z,32.07
2018-03-24T13:02:37.004Z,36.63
2018-03-24T13:05:04.631Z,30.07
2018-03-24T13:07:32.256Z,32.03
2018-03-24T13:09:59.868Z,33.80
2018-03-24T13:12:27.467Z,33.30
2018-03-24T13:14:55.084Z,34.57
2018-03-24T13:17:22.695Z,35.00
2018-03-24T13:19:50.313Z,34.33
2018-03-24T13:22:17.953Z,31.90
2018-03-24T13:24:45.560Z,35.50
2018-03-24T13:27:13.928Z,36.97
2018-03-24T13:29:42.299Z,37.55
2018-03-24T13:32:10.696Z,39.47
2018-03-24T13:34:38.304Z,34.53
2018-03-24T13:37:05.923Z,34.60
2018-03-24T13:39:33.524Z,30.90
2018-03-24T13:42:01.600Z,32.70
2018-03-24T13:44:29.236Z,39.50
2018-03-24T13:46:56.865Z,40.63
2018-03-24T13:49:25.263Z,36.57
2018-03-24T13:51:52.871Z,34.23
2018-03-24T13:54:20.533Z,35.97
2018-03-24T13:56:48.136Z,33.90
2018-03-24T13:59:15.745Z,33.30
2018-03-24T14:01:44.016Z,37.70
2018-03-24T14:04:11.616Z,35.93
2018-03-24T14:06:42.865Z,38.07
2018-03-24T14:09:11.238Z,39.37
2018-03-24T14:11:39.599Z,35.17
2018-03-24T14:14:07.213Z,32.30
2018-03-24T14:16:34.841Z,38.20
2018-03-24T14:19:02.450Z,29.70
2018-03-24T14:21:30.116Z,34.53
2018-03-24T14:23:57.716Z,33.00
2018-03-24T14:26:26.088Z,37.17
2018-03-24T14:28:53.712Z,29.93
2018-03-24T14:31:21.324Z,33.97
2018-03-24T14:33:49.692Z,35.07
2018-03-24T14:36:18.084Z,36.67
2018-03-24T14:38:45.693Z,36.93
2018-03-24T14:41:13.292Z,37.03
2018-03-24T14:43:41.679Z,34.57
2018-03-24T14:46:10.052Z,32.73
2018-03-24T14:48:37.658Z,32.27
2018-03-24T14:51:05.271Z,38.27
2018-03-24T14:53:32.877Z,34.70
2018-03-24T14:56:01.256Z,37.90
2018-03-24T14:58:28.891Z,39.57
2018-03-24T15:00:56.500Z,40.97
2018-03-24T15:03:24.113Z,36.10
2018-03-24T15:05:51.856Z,31.73
2018-03-24T15:08:19.461Z,36.37
2018-03-24T15:10:47.067Z,37.93
2018-03-24T15:13:15.462Z,40.87
2018-03-24T15:15:43.826Z,38.30
2018-03-24T15:18:11.433Z,43.40
2018-03-24T15:20:39.052Z,41.87
2018-03-24T15:23:07.420Z,37.70
2018-03-24T15:25:35.788Z,38.80
2018-03-24T15:28:03.646Z,44.03
2018-03-24T15:30:42.959Z,43.27
2018-03-24T15:33:22.287Z,44.93
2018-03-24T15:36:01.727Z,43.90
2018-03-24T15:38:29.335Z,36.47
2018-03-24T15:40:56.947Z,42.73
2018-03-24T15:43:24.544Z,40.70
2018-03-24T15:45:52.199Z,39.27
2018-03-24T15:48:19.800Z,44.47
2018-03-24T15:50:47.407Z,45.83
2018-03-24T15:53:15.060Z,45.13
2018-03-24T15:55:42.664Z,47.00
2018-03-24T15:58:11.040Z,40.93
2018-03-24T16:00:39.416Z,48.87
2018-03-24T16:03:07.793Z,40.30
2018-03-24T16:05:36.181Z,38.13
2018-03-24T16:08:04.575Z,36.63
2018-03-24T16:10:32.172Z,38.50
2018-03-24T16:12:59.803Z,43.43
2018-03-24T16:15:27.422Z,44.40
2018-03-24T16:17:55.032Z,41.93
2018-03-24T16:20:22.652Z,42.93
2018-03-24T16:22:50.275Z,38.53
2018-03-24T16:25:17.887Z,44.57
2018-03-24T16:27:46.252Z,40.17
2018-03-24T16:30:14.686Z,47.97
2018-03-24T16:32:42.287Z,44.77
2018-03-24T16:35:09.903Z,48.37
2018-03-24T16:37:37.516Z,42.13
2018-03-24T16:40:05.891Z,52.57
2018-03-24T16:42:33.511Z,42.70
2018-03-24T16:45:01.139Z,53.93
2018-03-24T16:47:28.825Z,49.93
2018-03-24T16:49:56.511Z,46.60
2018-03-24T16:52:24.147Z,53.37
2018-03-24T16:54:51.748Z,42.37
2018-03-24T16:57:19.357Z,38.03
2018-03-24T16:59:46.981Z,43.13
2018-03-24T17:02:15.362Z,43.20
2018-03-24T17:04:43.732Z,39.60
2018-03-24T17:07:12.123Z,46.75
2018-03-24T17:09:40.488Z,53.47
2018-03-24T17:12:08.857Z,53.57
2018-03-24T17:14:36.480Z,53.60
2018-03-24T17:17:04.088Z,57.83
2018-03-24T17:19:32.465Z,44.10
2018-03-24T17:22:00.893Z,53.37
2018-03-24T17:24:28.500Z,55.07
2018-03-24T17:26:56.100Z,50.33
2018-03-24T17:29:23.722Z,45.77
2018-03-24T17:31:52.119Z,47.53
2018-03-24T17:34:19.740Z,42.37
2018-03-24T17:36:47.368Z,45.50
2018-03-24T17:39:14.978Z,41.37
2018-03-24T17:41:42.595Z,51.03
2018-03-24T17:44:10.240Z,51.07
2018-03-24T17:46:37.880Z,50.47
2018-03-24T17:49:06.264Z,47.23
2018-03-24T17:51:34.683Z,42.23
2018-03-24T17:54:02.307Z,48.10
2018-03-24T17:56:29.920Z,46.80
2018-03-24T17:58:57.539Z,42.73
2018-03-24T18:01:25.145Z,50.63
2018-03-24T18:03:52.754Z,39.40
2018-03-24T18:06:20.395Z,42.17
2018-03-24T18:08:48.000Z,48.40
2018-03-24T18:11:15.604Z,51.40
2018-03-24T18:13:43.255Z,41.47
2018-03-24T18:16:10.869Z,54.53
2018-03-24T18:18:38.485Z,38.90
2018-03-24T18:21:06.922Z,42.80
2018-03-24T18:23:34.571Z,44.00
2018-03-24T18:26:02.182Z,41.50
2018-03-24T18:28:29.800Z,46.77
2018-03-24T18:30:57.407Z,44.63
2018-03-24T18:33:25.012Z,40.17
2018-03-24T18:35:52.668Z,38.27
2018-03-24T18:38:20.279Z,39.87
2018-03-24T18:40:48.666Z,46.70
2018-03-24T18:43:16.306Z,36.77
2018-03-24T18:45:43.914Z,45.27
2018-03-24T18:48:11.516Z,45.27
2018-03-24T18:50:39.128Z,43.60
2018-03-24T18:53:07.499Z,38.47
2018-03-24T18:55:35.872Z,39.90
2018-03-24T18:58:04.272Z,42.33
2018-03-24T19:00:31.876Z,39.80
2018-03-24T19:03:00.241Z,41.10
2018-03-24T19:05:27.866Z,37.80
2018-03-24T19:07:55.483Z,38.00
2018-03-24T19:10:23.080Z,34.70
2018-03-24T19:12:51.464Z,37.17
2018-03-24T19:15:19.072Z,37.20
2018-03-24T19:17:46.680Z,42.07
2018-03-24T19:20:15.064Z,47.55
2018-03-24T19:22:42.686Z,44.47
2018-03-24T19:25:10.320Z,36.10
2018-03-24T19:27:37.999Z,37.80
2018-03-24T19:30:05.604Z,44.57
2018-03-24T19:32:33.972Z,38.83
2018-03-24T19:35:01.592Z,40.43
2018-03-24T19:37:29.279Z,41.90
2018-03-24T19:39:56.879Z,35.73
2018-03-24T19:42:24.491Z,40.27
2018-03-24T19:44:52.108Z,40.50
2018-03-24T19:47:19.723Z,43.23
2018-03-24T19:49:47.345Z,34.93
2018-03-24T19:52:14.954Z,39.10
2018-03-24T19:54:43.336Z,43.33
2018-03-24T19:57:11.004Z,36.67
2018-03-24T19:59:38.612Z,48.40
2018-03-24T20:02:06.215Z,36.03
2018-03-24T20:04:34.600Z,43.43
2018-03-24T20:07:02.199Z,35.97
2018-03-24T20:09:29.803Z,38.13
2018-03-24T20:11:57.420Z,42.17
2018-03-24T20:14:25.024Z,37.70
2018-03-24T20:16:52.649Z,51.33
2018-03-24T20:19:20.281Z,41.30
2018-03-24T20:21:47.894Z,36.03
2018-03-24T20:24:16.290Z,49.17
2018-03-24T20:26:44.677Z,51.15
2018-03-24T20:29:13.081Z,48.90
2018-03-24T20:31:40.695Z,48.30
2018-03-24T20:34:08.320Z,54.73
2018-03-24T20:36:35.939Z,74.12
2018-03-24T20:39:03.598Z,44.40
2018-03-24T20:41:32.012Z,55.65
2018-03-24T20:43:59.619Z,53.15
2018-03-24T20:46:27.224Z,49.03
2018-03-24T20:48:54.868Z,44.77
2018-03-24T20:51:22.519Z,45.20
2018-03-24T20:53:50.908Z,36.50
2018-03-24T20:56:18.519Z,34.80
2018-03-24T20:58:46.137Z,64.50
2018-03-24T21:01:13.742Z,49.70
2018-03-24T21:03:41.356Z,45.23
2018-03-24T21:06:08.960Z,48.67
2018-03-24T21:08:36.564Z,55.60
2018-03-24T21:11:04.179Z,62.27
2018-03-24T21:13:31.796Z,58.97
2018-03-24T21:15:59.411Z,39.30
2018-03-24T21:18:27.059Z,40.40
2018-03-24T21:20:54.668Z,36.87
2018-03-24T21:23:22.279Z,36.73
2018-03-24T21:25:49.909Z,35.20
2018-03-24T21:28:17.512Z,33.07
2018-03-24T21:30:45.120Z,31.17
2018-03-24T21:33:12.735Z,36.10
2018-03-24T21:35:41.127Z,37.20
2018-03-24T21:38:08.764Z,37.83
2018-03-24T21:40:36.404Z,41.00
2018-03-24T21:43:04.013Z,37.27
2018-03-24T21:45:31.667Z,37.27
2018-03-24T21:47:59.326Z,42.97
2018-03-24T21:50:26.956Z,36.80
2018-03-24T21:52:54.552Z,35.97
2018-03-24T21:55:22.233Z,38.40
2018-03-24T21:57:49.846Z,38.57
2018-03-24T22:00:17.539Z,38.43
2018-03-24T22:02:45.923Z,47.63
2018-03-24T22:05:14.299Z,55.13
2018-03-24T22:07:42.678Z,60.57
2018-03-24T22:10:11.076Z,60.57
2018-03-24T22:12:39.087Z,41.43
2018-03-24T22:15:06.688Z,68.33
2018-03-24T22:17:34.308Z,39.80
2018-03-24T22:20:01.908Z,41.03
2018-03-24T22:22:29.522Z,63.00
2018-03-24T22:24:57.155Z,54.70
2018-03-24T22:27:24.770Z,56.27
2018-03-24T22:29:52.371Z,64.50
2018-03-24T22:32:19.980Z,68.97
2018-03-24T22:34:47.591Z,39.20
2018-03-24T22:37:15.188Z,40.97
2018-03-24T22:39:42.863Z,63.53
2018-03-24T22:42:10.439Z,59.87
2018-03-24T22:44:38.080Z,39.80
2018-03-24T22:47:05.696Z,56.07
2018-03-24T22:49:33.301Z,81.80
2018-03-24T22:52:00.921Z,48.33
2018-03-24T22:54:28.603Z,40.70
2018-03-24T22:56:56.193Z,52.97
2018-03-24T22:59:23.796Z,40.23
2018-03-24T23:01:51.444Z,55.07
2018-03-24T23:04:19.097Z,71.83
2018-03-24T23:06:47.506Z,61.90
2018-03-24T23:09:15.124Z,51.97
2018-03-24T23:11:42.720Z,63.97
2018-03-24T23:14:10.324Z,55.83
2018-03-24T23:16:38.715Z,73.17
2018-03-24T23:19:06.324Z,42.07
2018-03-24T23:21:33.932Z,42.93
2018-03-24T23:24:01.583Z,64.83
2018-03-24T23:26:29.188Z,57.07
2018-03-24T23:28:56.807Z,52.57
2018-03-24T23:31:24.419Z,41.70
2018-03-24T23:33:52.020Z,40.17
2018-03-24T23:36:19.633Z,73.10
2018-03-24T23:38:48.011Z,53.67
2018-03-24T23:41:15.619Z,41.90
2018-03-24T23:43:43.247Z,55.10
2018-03-24T23:46:10.855Z,59.13
2018-03-24T23:48:38.463Z,69.30
2018-03-24T23:51:06.087Z,60.40
2018-03-24T23:53:33.698Z,52.10
2018-03-24T23:56:01.332Z,45.43
2018-03-24T23:58:28.943Z,52.13
